Time;durP1;ratioP1;P1;durP2;ratioP2;P2;SDS_P1;SDS_P2;PMS_P1;PMS_P2;Temp;Humidity;BMP_temperature;BMP_pressure;BME280_temperature;BME280_humidity;BME280_pressure;Samples;Min_cycle;Max_cycle;Signal;HPM_P1;HPM_P2
2022/05/17 00:01:50;;;;;;;3.15;2.53;;;;;;;;;;4891446;29;20054;-78
2022/05/17 00:04:19;;;;;;;6.72;2.22;;;;;;;;;;4891422;29;20104;-78
2022/05/17 00:06:47;;;;;;;4.32;2.30;;;;;;;;;;4878181;29;20139;-78
2022/05/17 00:09:17;;;;;;;3.17;2.60;;;;;;;;;;4891189;29;20545;-78
2022/05/17 00:11:45;;;;;;;2.45;2.20;;;;;;;;;;4886699;29;20056;-78
2022/05/17 00:14:14;;;;;;;3.85;2.00;;;;;;;;;;4896910;29;20048;-78
2022/05/17 00:16:42;;;;;;;3.92;2.55;;;;;;;;;;4875029;29;20417;-78
2022/05/17 00:19:11;;;;;;;3.65;2.35;;;;;;;;;;4890957;29;20056;-78
2022/05/17 00:21:39;;;;;;;4.47;2.55;;;;;;;;;;4874066;29;20135;-78
2022/05/17 00:24:06;;;;;;;4.40;2.78;;;;;;;;;;4890548;29;20569;-78
2022/05/17 00:26:34;;;;;;;3.17;2.60;;;;;;;;;;4890247;29;20050;-78
2022/05/17 00:29:02;;;;;;;6.30;2.83;;;;;;;;;;4874201;29;20064;-78
2022/05/17 00:31:29;;;;;;;3.35;2.50;;;;;;;;;;4873695;29;20412;-78
2022/05/17 00:33:57;;;;;;;2.80;2.13;;;;;;;;;;4890713;29;20484;-78
2022/05/17 00:36:25;;;;;;;4.03;2.42;;;;;;;;;;4890129;29;20422;-77
2022/05/17 00:38:52;;;;;;;2.30;2.10;;;;;;;;;;4891123;29;20123;-78
2022/05/17 00:41:20;;;;;;;4.45;2.10;;;;;;;;;;4882532;29;20048;-78
2022/05/17 00:46:43;;;;;;;5.22;2.33;;;;;;;;;;4900675;29;20052;-78
2022/05/17 00:49:13;;;;;;;3.25;2.10;;;;;;;;;;4909811;29;20127;-78
2022/05/17 00:51:41;;;;;;;1.92;1.83;;;;;;;;;;4880801;29;20067;-78
2022/05/17 00:54:11;;;;;;;3.75;2.13;;;;;;;;;;4874468;29;20127;-78
2022/05/17 00:56:42;;;;;;;2.67;2.03;;;;;;;;;;4874344;29;20172;-78
2022/05/17 00:59:10;;;;;;;6.85;2.47;;;;;;;;;;4874335;29;20040;-78
2022/05/17 01:01:38;;;;;;;2.08;1.90;;;;;;;;;;4891063;29;20047;-77
2022/05/17 01:04:14;;;;;;;2.42;2.20;;;;;;;;;;4860218;29;20581;-77
2022/05/17 01:06:50;;;;;;;1.83;1.73;;;;;;;;;;4887624;29;20064;-77
2022/05/17 01:09:17;;;;;;;2.83;1.75;;;;;;;;;;4910599;29;20048;-77
2022/05/17 01:11:45;;;;;;;3.70;2.00;;;;;;;;;;4881729;29;20493;-77
2022/05/17 01:17:00;;;;;;;2.10;1.90;;;;;;;;;;4873910;29;20044;-78
2022/05/17 01:19:27;;;;;;;2.38;1.67;;;;;;;;;;4891657;29;20524;-78
2022/05/17 01:21:55;;;;;;;8.43;1.92;;;;;;;;;;4887635;29;20048;-78
2022/05/17 01:24:23;;;;;;;3.00;2.08;;;;;;;;;;4911048;29;20419;-78
2022/05/17 01:27:00;;;;;;;4.13;1.80;;;;;;;;;;4880147;29;20413;-78
2022/05/17 01:29:30;;;;;;;3.85;1.83;;;;;;;;;;4875373;29;20505;-78
2022/05/17 01:31:57;;;;;;;2.20;2.10;;;;;;;;;;4874990;29;20040;-78
2022/05/17 01:34:25;;;;;;;2.33;2.00;;;;;;;;;;4890840;29;20572;-78
2022/05/17 01:36:53;;;;;;;2.03;1.88;;;;;;;;;;4864682;29;20120;-78
2022/05/17 01:39:21;;;;;;;2.00;1.80;;;;;;;;;;4870989;29;20426;-78
2022/05/17 01:41:48;;;;;;;2.38;2.17;;;;;;;;;;4880806;29;20127;-78
2022/05/17 01:44:15;;;;;;;3.45;2.08;;;;;;;;;;4904972;29;20466;-78
2022/05/17 01:46:43;;;;;;;5.13;2.10;;;;;;;;;;4873336;29;20052;-78
2022/05/17 01:49:10;;;;;;;4.57;2.15;;;;;;;;;;4890204;29;20060;-78
2022/05/17 01:51:38;;;;;;;5.10;2.17;;;;;;;;;;4873003;29;20037;-78
2022/05/17 01:54:05;;;;;;;3.50;2.25;;;;;;;;;;4874497;29;20056;-78
2022/05/17 01:56:33;;;;;;;4.22;1.88;;;;;;;;;;4876624;29;20131;-78
2022/05/17 01:59:01;;;;;;;2.50;2.28;;;;;;;;;;4892833;29;20056;-78
2022/05/17 02:01:28;;;;;;;4.32;2.00;;;;;;;;;;4861396;29;20332;-78
2022/05/17 02:03:56;;;;;;;3.45;2.15;;;;;;;;;;4876597;29;20510;-78
2022/05/17 02:06:24;;;;;;;4.00;2.50;;;;;;;;;;4893452;29;20413;-78
2022/05/17 02:08:52;;;;;;;4.53;2.20;;;;;;;;;;4876406;29;20336;-78
2022/05/17 02:11:19;;;;;;;3.50;1.90;;;;;;;;;;4892983;29;20132;-78
2022/05/17 02:13:47;;;;;;;4.10;2.30;;;;;;;;;;4893248;29;20657;-78
2022/05/17 02:16:14;;;;;;;3.75;2.03;;;;;;;;;;4892866;29;20048;-78
2022/05/17 02:18:47;;;;;;;2.60;2.40;;;;;;;;;;4892947;29;20123;-77
2022/05/17 02:21:14;;;;;;;3.80;2.25;;;;;;;;;;4875936;29;20493;-78
2022/05/17 02:23:42;;;;;;;3.17;1.90;;;;;;;;;;4877667;29;20135;-78
2022/05/17 02:26:10;;;;;;;2.35;2.10;;;;;;;;;;4876064;29;20067;-78
2022/05/17 02:28:38;;;;;;;3.25;2.40;;;;;;;;;;4875239;29;20084;-78
2022/05/17 02:31:05;;;;;;;2.42;2.22;;;;;;;;;;4875622;29;20055;-77
2022/05/17 02:33:33;;;;;;;2.53;2.33;;;;;;;;;;4860840;29;20577;-77
2022/05/17 02:36:00;;;;;;;3.25;2.40;;;;;;;;;;4882385;29;20059;-77
2022/05/17 02:38:27;;;;;;;3.65;2.20;;;;;;;;;;4891175;29;20123;-77
2022/05/17 02:40:55;;;;;;;2.60;2.20;;;;;;;;;;4874870;29;20076;-78
2022/05/17 02:43:22;;;;;;;2.40;2.20;;;;;;;;;;4892742;29;20131;-78
2022/05/17 02:45:51;;;;;;;2.70;2.25;;;;;;;;;;4881386;29;20556;-77
2022/05/17 02:48:18;;;;;;;2.60;2.28;;;;;;;;;;4892775;29;20112;-77
2022/05/17 02:50:46;;;;;;;7.03;2.15;;;;;;;;;;4892513;29;20048;-77
2022/05/17 02:53:13;;;;;;;4.18;2.60;;;;;;;;;;4875769;29;20049;-78
2022/05/17 02:55:41;;;;;;;2.72;2.50;;;;;;;;;;4875700;29;20048;-78
2022/05/17 02:58:08;;;;;;;4.90;2.63;;;;;;;;;;4875230;29;20120;-77
2022/05/17 03:00:36;;;;;;;2.78;2.33;;;;;;;;;;4875425;29;20041;-77
2022/05/17 03:03:04;;;;;;;4.00;2.50;;;;;;;;;;4892314;29;20052;-77
2022/05/17 03:05:32;;;;;;;2.50;2.25;;;;;;;;;;4890927;29;20505;-78
2022/05/17 03:07:59;;;;;;;3.10;2.22;;;;;;;;;;4875204;29;20612;-78
2022/05/17 03:10:29;;;;;;;4.55;2.20;;;;;;;;;;4891193;29;20585;-77
2022/05/17 03:12:56;;;;;;;3.92;2.65;;;;;;;;;;4879622;29;20135;-78
2022/05/17 03:15:23;;;;;;;2.47;2.30;;;;;;;;;;4893891;29;20044;-78
2022/05/17 03:17:51;;;;;;;5.88;2.53;;;;;;;;;;4894023;29;20559;-77
2022/05/17 03:20:18;;;;;;;4.82;2.65;;;;;;;;;;4894756;29;20071;-77
2022/05/17 03:22:46;;;;;;;4.03;2.38;;;;;;;;;;4930085;29;20576;-77
2022/05/17 03:25:13;;;;;;;4.28;2.90;;;;;;;;;;4919990;29;20052;-78
2022/05/17 03:27:52;;;;;;;5.28;2.50;;;;;;;;;;4910590;29;20088;-77
2022/05/17 03:30:19;;;;;;;3.15;2.72;;;;;;;;;;4911208;29;20051;-77
2022/05/17 03:32:47;;;;;;;3.83;3.08;;;;;;;;;;4913339;29;20047;-77
2022/05/17 03:35:14;;;;;;;3.58;2.40;;;;;;;;;;4912911;29;20039;-77
2022/05/17 03:37:42;;;;;;;4.03;2.60;;;;;;;;;;4897032;29;20448;-78
2022/05/17 03:40:11;;;;;;;6.07;3.03;;;;;;;;;;4915994;29;20449;-78
2022/05/17 03:42:38;;;;;;;4.38;2.92;;;;;;;;;;4912977;29;20076;-77
2022/05/17 03:45:07;;;;;;;5.13;3.10;;;;;;;;;;4929973;29;20043;-77
2022/05/17 03:47:34;;;;;;;4.88;2.70;;;;;;;;;;4902904;29;20040;-78
2022/05/17 03:50:02;;;;;;;4.93;2.55;;;;;;;;;;4919203;29;20070;-78
2022/05/17 03:52:30;;;;;;;4.22;2.75;;;;;;;;;;4929470;29;20036;-77
2022/05/17 03:54:58;;;;;;;2.75;2.55;;;;;;;;;;4930048;29;20071;-78
2022/05/17 03:57:29;;;;;;;4.97;2.55;;;;;;;;;;4911418;29;20222;-78
2022/05/17 03:59:59;;;;;;;3.35;2.63;;;;;;;;;;4893982;29;20047;-77
2022/05/17 04:02:27;;;;;;;4.50;3.13;;;;;;;;;;4891169;29;20079;-77
2022/05/17 04:04:55;;;;;;;8.25;3.20;;;;;;;;;;4910471;29;20409;-78
2022/05/17 04:07:23;;;;;;;4.03;2.72;;;;;;;;;;4902262;29;20166;-77
2022/05/17 04:09:50;;;;;;;3.55;2.92;;;;;;;;;;4911165;29;20050;-77
2022/05/17 04:12:20;;;;;;;3.30;2.92;;;;;;;;;;4912761;29;20076;-78
2022/05/17 04:14:47;;;;;;;4.70;3.00;;;;;;;;;;4910974;29;20059;-78
2022/05/17 04:17:15;;;;;;;5.40;2.90;;;;;;;;;;4904143;29;20131;-77
2022/05/17 04:19:42;;;;;;;6.10;3.28;;;;;;;;;;4893505;29;20052;-78
2022/05/17 04:22:13;;;;;;;4.30;3.25;;;;;;;;;;4883149;29;20079;-77
2022/05/17 04:24:41;;;;;;;5.38;3.33;;;;;;;;;;4894225;29;20127;-77
2022/05/17 04:27:09;;;;;;;4.50;3.67;;;;;;;;;;4895603;29;20048;-78
2022/05/17 04:29:37;;;;;;;3.75;3.15;;;;;;;;;;4909243;29;20052;-78
2022/05/17 04:32:08;;;;;;;5.45;4.00;;;;;;;;;;4861094;29;20062;-78
2022/05/17 04:34:42;;;;;;;5.45;4.05;;;;;;;;;;4875056;29;20075;-78
2022/05/17 04:37:17;;;;;;;5.90;4.22;;;;;;;;;;4856993;29;20523;-78
2022/05/17 04:39:44;;;;;;;5.22;4.35;;;;;;;;;;4873230;29;20048;-78
2022/05/17 04:42:11;;;;;;;4.60;4.00;;;;;;;;;;4858833;29;20073;-79
2022/05/17 04:44:41;;;;;;;15.52;4.82;;;;;;;;;;4869146;29;20048;-79
2022/05/17 04:47:09;;;;;;;9.13;5.20;;;;;;;;;;4888209;29;20060;-79
2022/05/17 04:49:55;;;;;;;8.10;5.22;;;;;;;;;;4870620;29;20049;-79
2022/05/17 04:52:23;;;;;;;4.13;3.80;;;;;;;;;;4887719;29;20044;-79
2022/05/17 04:54:54;;;;;;;7.55;5.05;;;;;;;;;;4868915;29;20055;-79
2022/05/17 04:57:22;;;;;;;8.52;6.00;;;;;;;;;;4898352;29;20056;-79
2022/05/17 04:59:49;;;;;;;6.32;5.70;;;;;;;;;;4881357;29;20080;-79
2022/05/17 05:02:16;;;;;;;10.60;6.35;;;;;;;;;;4889547;29;20059;-80
2022/05/17 05:05:01;;;;;;;7.18;6.10;;;;;;;;;;4897816;29;20053;-80
2022/05/17 05:07:54;;;;;;;7.22;6.53;;;;;;;;;;4880670;29;20418;-80
2022/05/17 05:11:02;;;;;;;9.45;6.85;;;;;;;;;;4889571;29;20040;-81
2022/05/17 05:13:30;;;;;;;9.85;6.93;;;;;;;;;;4940405;23;20464;-81
2022/05/17 05:15:57;;;;;;;8.93;7.40;;;;;;;;;;4955812;28;20049;-81
2022/05/17 05:18:25;;;;;;;7.57;6.78;;;;;;;;;;4937240;28;20065;-80
2022/05/17 05:21:04;;;;;;;10.15;7.00;;;;;;;;;;4957556;28;20074;-80
2022/05/17 05:23:32;;;;;;;9.68;8.00;;;;;;;;;;4956222;28;20035;-81
2022/05/17 05:26:00;;;;;;;9.55;7.25;;;;;;;;;;4954337;28;20039;-81
2022/05/17 05:28:33;;;;;;;11.07;7.72;;;;;;;;;;4943820;28;20046;-81
2022/05/17 05:31:01;;;;;;;7.97;5.60;;;;;;;;;;4967939;28;20071;-81
2022/05/17 05:33:29;;;;;;;13.23;7.15;;;;;;;;;;4967677;28;20387;-81
2022/05/17 05:35:57;;;;;;;12.73;7.95;;;;;;;;;;4969806;28;20394;-80
2022/05/17 05:38:25;;;;;;;16.23;7.72;;;;;;;;;;4940926;28;20063;-78
2022/05/17 05:40:54;;;;;;;14.43;7.32;;;;;;;;;;4946663;28;20400;-80
2022/05/17 05:43:22;;;;;;;15.60;9.45;;;;;;;;;;4946756;28;20125;-80
2022/05/17 05:45:50;;;;;;;12.20;8.52;;;;;;;;;;4966064;28;20043;-81
2022/05/17 05:48:17;;;;;;;13.20;10.05;;;;;;;;;;4958679;28;20482;-78
2022/05/17 05:50:47;;;;;;;12.85;9.38;;;;;;;;;;4955262;28;20099;-79
2022/05/17 05:53:15;;;;;;;13.52;8.18;;;;;;;;;;4940421;28;20118;-81
2022/05/17 05:55:43;;;;;;;13.98;9.27;;;;;;;;;;4969579;28;20043;-80
2022/05/17 05:58:10;;;;;;;13.07;9.05;;;;;;;;;;4953720;28;20130;-80
2022/05/17 06:00:38;;;;;;;9.95;7.57;;;;;;;;;;4966894;28;20039;-79
2022/05/17 06:03:06;;;;;;;14.45;8.93;;;;;;;;;;4946179;28;20081;-79
2022/05/17 06:05:34;;;;;;;15.23;8.95;;;;;;;;;;4960207;28;20039;-80
2022/05/17 06:08:01;;;;;;;13.70;10.00;;;;;;;;;;4957384;28;20098;-79
2022/05/17 06:10:29;;;;;;;18.90;10.15;;;;;;;;;;4961496;28;20138;-81
2022/05/17 06:12:56;;;;;;;15.85;10.95;;;;;;;;;;4966712;28;20047;-78
2022/05/17 06:15:24;;;;;;;13.57;9.70;;;;;;;;;;4958835;28;20070;-79
2022/05/17 06:17:52;;;;;;;14.02;9.43;;;;;;;;;;4948574;28;20043;-80
2022/05/17 06:20:20;;;;;;;15.32;9.77;;;;;;;;;;4919113;28;20048;-81
2022/05/17 06:22:47;;;;;;;11.23;7.22;;;;;;;;;;4916180;29;20404;-80
2022/05/17 06:25:16;;;;;;;13.48;8.80;;;;;;;;;;4920726;28;20043;-83
2022/05/17 06:27:44;;;;;;;15.63;8.98;;;;;;;;;;4958416;29;20125;-86
2022/05/17 06:30:11;;;;;;;20.83;11.20;;;;;;;;;;4942698;28;20141;-84
2022/05/17 06:32:39;;;;;;;59.30;12.20;;;;;;;;;;4941759;28;20162;-81
2022/05/17 06:35:07;;;;;;;17.95;11.68;;;;;;;;;;4930258;29;20456;-80
2022/05/17 06:37:35;;;;;;;19.13;11.15;;;;;;;;;;4941328;28;20055;-81
2022/05/17 06:40:04;;;;;;;23.75;11.50;;;;;;;;;;4939002;29;20044;-83
2022/05/17 06:42:32;;;;;;;18.48;11.90;;;;;;;;;;4960746;28;20049;-81
2022/05/17 06:45:00;;;;;;;19.67;12.32;;;;;;;;;;4967034;28;20394;-81
2022/05/17 06:47:27;;;;;;;22.88;11.55;;;;;;;;;;4949709;29;20067;-81
2022/05/17 06:49:54;;;;;;;31.00;14.45;;;;;;;;;;4941260;29;20106;-81
2022/05/17 06:52:23;;;;;;;17.25;12.45;;;;;;;;;;4961199;28;20047;-82
2022/05/17 06:54:50;;;;;;;27.13;16.25;;;;;;;;;;4943180;29;20166;-81
2022/05/17 06:57:30;;;;;;;11.60;9.38;;;;;;;;;;4957969;28;20058;-82
2022/05/17 06:59:58;;;;;;;18.85;13.25;;;;;;;;;;4938611;28;20047;-81
2022/05/17 07:02:25;;;;;;;18.00;13.68;;;;;;;;;;4954808;28;20043;-80
2022/05/17 07:04:53;;;;;;;10.82;9.23;;;;;;;;;;4937440;29;20076;-81
2022/05/17 07:07:20;;;;;;;17.55;12.63;;;;;;;;;;4952944;28;20118;-81
2022/05/17 07:13:07;;;;;;;17.23;11.80;;;;;;;;;;4914151;29;20064;-81
2022/05/17 07:15:21;;;;;;;23.45;14.00;;;;;;;;;;4972414;28;20049;-80
2022/05/17 07:17:51;;;;;;;11.32;9.95;;;;;;;;;;4939034;29;20510;-81
2022/05/17 07:20:22;;;;;;;17.77;12.10;;;;;;;;;;4930450;28;20054;-80
2022/05/17 07:22:50;;;;;;;20.33;13.52;;;;;;;;;;4934410;28;20493;-80
2022/05/17 07:25:17;;;;;;;12.93;9.40;;;;;;;;;;4956416;28;20078;-85
2022/05/17 07:27:45;;;;;;;18.08;11.80;;;;;;;;;;4943518;28;20137;-84
2022/05/17 07:30:13;;;;;;;19.55;11.73;;;;;;;;;;4960822;28;20106;-83
2022/05/17 07:32:40;;;;;;;15.93;12.10;;;;;;;;;;4925090;29;20591;-81
2022/05/17 07:35:09;;;;;;;30.13;21.92;;;;;;;;;;4924135;28;20047;-83
2022/05/17 07:37:37;;;;;;;8.48;7.60;;;;;;;;;;4925870;29;20126;-83
2022/05/17 07:40:05;;;;;;;11.27;10.07;;;;;;;;;;4919600;29;20051;-79
2022/05/17 07:42:37;;;;;;;12.88;9.18;;;;;;;;;;4943778;28;20043;-83
2022/05/17 07:45:08;;;;;;;9.32;8.43;;;;;;;;;;4943073;29;20058;-81
2022/05/17 07:47:36;;;;;;;12.65;9.82;;;;;;;;;;4945950;28;20113;-81
2022/05/17 07:50:05;;;;;;;14.18;9.73;;;;;;;;;;4946591;28;20084;-83
2022/05/17 07:52:33;;;;;;;9.35;7.82;;;;;;;;;;4944635;28;20090;-83
2022/05/17 07:55:07;;;;;;;11.88;9.68;;;;;;;;;;4935338;28;20066;-80
2022/05/17 07:57:44;;;;;;;8.60;7.75;;;;;;;;;;4915620;29;20044;-82
2022/05/17 08:00:11;;;;;;;14.07;9.57;;;;;;;;;;4913402;28;20060;-86
2022/05/17 08:02:39;;;;;;;12.55;9.35;;;;;;;;;;4924039;29;20054;-80
2022/05/17 08:05:34;;;;;;;11.98;9.38;;;;;;;;;;4917539;28;20519;-81
2022/05/17 08:08:12;;;;;;;12.80;10.30;;;;;;;;;;4941542;28;20051;-80
2022/05/17 08:10:40;;;;;;;11.15;9.75;;;;;;;;;;4933859;28;20054;-85
2022/05/17 08:13:08;;;;;;;13.05;11.73;;;;;;;;;;4939315;28;20868;-81
2022/05/17 08:15:35;;;;;;;12.57;9.18;;;;;;;;;;4927822;28;20307;-81
2022/05/17 08:18:04;;;;;;;13.40;11.77;;;;;;;;;;4960374;28;20085;-80
2022/05/17 08:20:32;;;;;;;15.48;13.02;;;;;;;;;;4945670;28;20078;-81
2022/05/17 08:22:59;;;;;;;12.35;10.88;;;;;;;;;;4959739;28;20452;-83
2022/05/17 08:28:13;;;;;;;17.17;12.38;;;;;;;;;;4960480;28;20832;-82
2022/05/17 08:30:41;;;;;;;11.20;10.07;;;;;;;;;;4930180;28;20051;-83
2022/05/17 08:33:17;;;;;;;17.45;13.75;;;;;;;;;;4962996;28;20051;-82
2022/05/17 08:35:50;;;;;;;18.60;12.88;;;;;;;;;;4933073;28;20140;-82
2022/05/17 08:38:20;;;;;;;15.88;14.20;;;;;;;;;;4946141;28;20214;-84
2022/05/17 08:40:58;;;;;;;13.75;9.40;;;;;;;;;;4946049;28;20074;-83
2022/05/17 08:43:42;;;;;;;17.33;13.20;;;;;;;;;;4962111;28;20053;-81
2022/05/17 08:46:27;;;;;;;11.90;10.27;;;;;;;;;;4960119;28;20057;-81
2022/05/17 08:48:57;;;;;;;20.80;14.00;;;;;;;;;;4931494;29;20059;-81
2022/05/17 08:51:44;;;;;;;12.25;11.02;;;;;;;;;;4952916;28;20053;-81
2022/05/17 08:54:17;;;;;;;14.70;12.82;;;;;;;;;;4926848;29;20110;-80
2022/05/17 08:56:58;;;;;;;11.45;9.75;;;;;;;;;;4950892;28;20101;-81
2022/05/17 08:59:26;;;;;;;11.82;10.73;;;;;;;;;;4947295;28;20094;-81
2022/05/17 09:01:59;;;;;;;13.73;12.05;;;;;;;;;;4946753;29;20046;-80
2022/05/17 09:04:37;;;;;;;18.13;14.73;;;;;;;;;;4930398;29;20467;-80
2022/05/17 09:07:14;;;;;;;10.40;9.32;;;;;;;;;;4956745;29;20051;-81
2022/05/17 09:09:54;;;;;;;13.98;12.43;;;;;;;;;;4931609;29;20047;-81
2022/05/17 09:12:24;;;;;;;20.00;15.38;;;;;;;;;;4946656;29;20416;-80
2022/05/17 09:14:53;;;;;;;13.00;11.77;;;;;;;;;;4955273;28;20114;-81
2022/05/17 09:17:24;;;;;;;14.85;13.25;;;;;;;;;;4954582;28;20089;-81
2022/05/17 09:19:52;;;;;;;12.63;11.53;;;;;;;;;;4926761;29;20098;-79
2022/05/17 09:22:20;;;;;;;14.48;11.52;;;;;;;;;;4951332;28;20055;-78
2022/05/17 09:24:52;;;;;;;13.50;11.32;;;;;;;;;;4972355;28;20133;-79
2022/05/17 09:27:37;;;;;;;12.70;11.10;;;;;;;;;;4955427;28;20083;-79
2022/05/17 09:30:07;;;;;;;12.10;9.50;;;;;;;;;;4920660;29;20055;-79
2022/05/17 09:32:38;;;;;;;11.02;9.93;;;;;;;;;;4956009;28;20491;-81
2022/05/17 09:35:26;;;;;;;15.02;8.48;;;;;;;;;;4980098;28;20062;-81
2022/05/17 09:37:58;;;;;;;7.22;6.50;;;;;;;;;;4945208;28;20129;-79
2022/05/17 09:40:35;;;;;;;11.10;8.02;;;;;;;;;;4944661;28;20051;-80
2022/05/17 09:43:06;;;;;;;10.20;7.80;;;;;;;;;;4966563;28;20063;-81
2022/05/17 09:45:39;;;;;;;9.05;6.75;;;;;;;;;;4966094;28;20047;-80
2022/05/17 09:48:07;;;;;;;9.38;6.90;;;;;;;;;;4970011;28;20059;-81
2022/05/17 09:53:39;;;;;;;5.90;5.28;;;;;;;;;;4969227;28;20078;-82
2022/05/17 09:56:07;;;;;;;5.97;5.43;;;;;;;;;;4940662;28;20055;-80
2022/05/17 09:58:36;;;;;;;9.43;5.38;;;;;;;;;;4940528;28;20079;-80
2022/05/17 10:01:28;;;;;;;10.23;4.90;;;;;;;;;;4963512;28;20039;-82
2022/05/17 10:03:55;;;;;;;;;;;;;;;;;;4973642;28;20038;-79
2022/05/17 10:06:39;;;;;;;6.28;3.95;;;;;;;;;;4963440;28;20406;-79
2022/05/17 10:09:08;;;;;;;5.10;4.43;;;;;;;;;;4938340;29;20138;-80
2022/05/17 10:11:59;;;;;;;8.73;4.47;;;;;;;;;;4945311;28;20054;-80
2022/05/17 10:14:34;;;;;;;7.60;4.40;;;;;;;;;;4945467;28;20392;-80
2022/05/17 10:17:02;;;;;;;8.55;4.60;;;;;;;;;;4919520;29;20056;-80
2022/05/17 10:19:43;;;;;;;5.13;4.13;;;;;;;;;;4944620;29;20147;-80
2022/05/17 10:22:23;;;;;;;8.35;3.97;;;;;;;;;;4956634;28;20062;-80
2022/05/17 10:24:53;;;;;;;4.22;3.65;;;;;;;;;;4931674;28;20059;-80
2022/05/17 10:27:25;;;;;;;7.05;3.65;;;;;;;;;;4940358;28;20506;-80
2022/05/17 10:29:58;;;;;;;5.55;3.83;;;;;;;;;;4925768;28;20060;-80
2022/05/17 10:32:33;;;;;;;6.07;3.50;;;;;;;;;;4956521;28;20073;-80
2022/05/17 10:35:12;;;;;;;5.28;3.70;;;;;;;;;;4925689;28;20046;-78
2022/05/17 10:37:39;;;;;;;;;;;;;;;;;;4917978;29;20049;-81
2022/05/17 10:40:14;;;;;;;5.22;3.40;;;;;;;;;;4955913;28;20009;-80
2022/05/17 10:42:51;;;;;;;4.82;3.10;;;;;;;;;;4964058;28;20066;-81
2022/05/17 10:45:33;;;;;;;7.15;3.38;;;;;;;;;;4945210;28;20122;-80
2022/05/17 10:48:18;;;;;;;6.07;3.47;;;;;;;;;;4945897;28;20042;-80
2022/05/17 10:51:07;;;;;;;4.40;3.22;;;;;;;;;;4965652;28;20420;-80
2022/05/17 10:53:50;;;;;;;3.78;2.50;;;;;;;;;;4958546;28;20835;-79
2022/05/17 10:56:18;;;;;;;2.72;2.50;;;;;;;;;;4936586;28;20039;-81
2022/05/17 10:59:10;;;;;;;6.50;3.13;;;;;;;;;;4936319;28;20518;-81
2022/05/17 11:01:43;;;;;;;3.10;2.90;;;;;;;;;;4922786;28;20623;-82
2022/05/17 11:04:36;;;;;;;6.55;2.95;;;;;;;;;;4944383;28;20472;-80
2022/05/17 11:07:04;;;;;;;6.95;3.10;;;;;;;;;;4959061;28;20097;-81
2022/05/17 11:09:43;;;;;;;3.33;2.78;;;;;;;;;;4940291;28;20423;-83
2022/05/17 11:12:11;;;;;;;4.70;2.90;;;;;;;;;;4941257;28;20047;-80
2022/05/17 11:14:57;;;;;;;2.88;2.30;;;;;;;;;;4968116;23;20095;-88
2022/05/17 11:17:36;;;;;;;4.50;2.72;;;;;;;;;;4927787;28;20460;-86
2022/05/17 11:23:26;;;;;;;3.22;2.13;;;;;;;;;;4909249;28;19926;-87
2022/05/17 11:26:16;;;;;;;5.60;2.40;;;;;;;;;;4905397;28;20471;-90
2022/05/17 11:29:34;;;;;;;2.67;2.30;;;;;;;;;;4927412;28;20035;-87
2022/05/17 11:35:51;;;;;;;2.20;2.00;;;;;;;;;;4915962;29;20449;-86
2022/05/17 11:38:36;;;;;;;7.90;2.30;;;;;;;;;;4947405;28;20043;-87
2022/05/17 11:41:37;;;;;;;2.63;2.13;;;;;;;;;;4905671;29;20139;-87
2022/05/17 11:44:13;;;;;;;2.67;2.20;;;;;;;;;;4936082;28;20039;-89
2022/05/17 11:46:41;;;;;;;2.42;2.03;;;;;;;;;;4918436;29;20259;-88
2022/05/17 11:49:09;;;;;;;2.28;2.08;;;;;;;;;;4936064;29;20436;-88
2022/05/17 11:52:00;;;;;;;4.80;2.50;;;;;;;;;;4935179;29;20085;-89
2022/05/17 11:54:42;;;;;;;9.45;2.30;;;;;;;;;;4934851;28;20823;-87
2022/05/17 11:57:10;;;;;;;2.67;1.80;;;;;;;;;;4920012;29;20057;-89
2022/05/17 11:59:42;;;;;;;2.95;1.70;;;;;;;;;;4920335;29;20589;-88
2022/05/17 12:02:17;;;;;;;2.17;1.75;;;;;;;;;;4915384;28;20051;-90
2022/05/17 12:04:49;;;;;;;3.13;1.92;;;;;;;;;;4902508;28;20047;-90
2022/05/17 12:14:20;;;;;;;3.63;1.90;;;;;;;;;;4868810;29;20044;-88
2022/05/17 12:17:01;;;;;;;2.33;1.73;;;;;;;;;;4885859;29;20040;-88
2022/05/17 12:24:08;;;;;;;3.05;1.80;;;;;;;;;;4878313;29;20109;-90
2022/05/17 12:26:55;;;;;;;2.78;1.80;;;;;;;;;;4804674;29;20062;-90
2022/05/17 12:32:22;;;;;;;3.70;2.03;;;;;;;;;;4937489;29;20517;-91
2022/05/17 12:35:05;;;;;;;3.15;2.20;;;;;;;;;;4929582;29;20059;-90
2022/05/17 12:37:48;;;;;;;2.33;1.70;;;;;;;;;;4918257;29;20043;-90
2022/05/17 12:43:15;;;;;;;3.83;1.80;;;;;;;;;;4916072;29;20045;-87
2022/05/17 12:46:03;;;;;;;4.55;2.00;;;;;;;;;;4935231;28;20049;-87
2022/05/17 12:48:32;;;;;;;2.72;1.80;;;;;;;;;;4927955;29;20050;-86
2022/05/17 12:51:04;;;;;;;2.33;1.80;;;;;;;;;;4905297;28;20062;-86
2022/05/17 12:58:14;;;;;;;6.43;1.70;;;;;;;;;;4858792;29;20107;-87
2022/05/17 13:00:51;;;;;;;2.28;1.70;;;;;;;;;;4869642;28;20045;-87
2022/05/17 13:03:31;;;;;;;3.00;1.95;;;;;;;;;;4900395;29;20043;-87
2022/05/17 13:06:08;;;;;;;3.83;1.50;;;;;;;;;;4926323;28;20055;-88
2022/05/17 13:08:47;;;;;;;2.55;1.50;;;;;;;;;;4903297;29;20170;-90
2022/05/17 13:11:29;;;;;;;2.72;1.48;;;;;;;;;;4914058;29;20723;-87
2022/05/17 13:14:25;;;;;;;5.05;1.50;;;;;;;;;;4917867;28;20051;-87
2022/05/17 13:20:01;;;;;;;3.05;1.30;;;;;;;;;;4918291;28;20669;-89
2022/05/17 13:22:30;;;;;;;1.92;1.40;;;;;;;;;;4947921;28;20049;-86
2022/05/17 13:25:02;;;;;;;4.38;1.30;;;;;;;;;;4930805;28;20047;-87
2022/05/17 13:27:31;;;;;;;4.05;1.50;;;;;;;;;;4952672;28;20126;-87
2022/05/17 13:30:24;;;;;;;1.85;1.10;;;;;;;;;;4948452;28;20079;-91
2022/05/17 13:32:55;;;;;;;4.28;1.50;;;;;;;;;;4932324;29;20093;-87
2022/05/17 13:35:28;;;;;;;5.22;1.98;;;;;;;;;;4919091;28;20047;-88
2022/05/17 13:38:28;;;;;;;4.28;1.58;;;;;;;;;;4921431;29;20066;-88
2022/05/17 13:41:27;;;;;;;4.63;1.40;;;;;;;;;;4927995;29;20620;-88
2022/05/17 13:47:46;;;;;;;4.03;1.48;;;;;;;;;;4930229;29;20051;-89
2022/05/17 13:50:24;;;;;;;1.98;1.17;;;;;;;;;;4913432;28;20050;-87
2022/05/17 13:53:18;;;;;;;5.55;1.50;;;;;;;;;;4952734;28;20047;-86
2022/05/17 13:56:06;;;;;;;2.40;1.73;;;;;;;;;;4918517;28;20431;-88
2022/05/17 13:58:41;;;;;;;8.07;2.00;;;;;;;;;;4919631;29;20047;-88
2022/05/17 14:01:17;;;;;;;4.10;1.80;;;;;;;;;;4932375;28;20048;-86
2022/05/17 14:04:10;;;;;;;3.05;1.50;;;;;;;;;;4934180;29;20102;-87
2022/05/17 14:06:43;;;;;;;3.30;1.60;;;;;;;;;;4915723;29;20073;-89
2022/05/17 14:12:31;;;;;;;2.38;1.42;;;;;;;;;;4947640;28;20063;-88
2022/05/17 14:15:00;;;;;;;2.15;1.60;;;;;;;;;;4951067;23;20071;-82
2022/05/17 14:17:32;;;;;;;2.10;1.40;;;;;;;;;;4910795;29;20055;-82
2022/05/17 14:20:02;;;;;;;4.70;1.50;;;;;;;;;;4907173;29;20052;-83
2022/05/17 14:22:32;;;;;;;2.05;1.50;;;;;;;;;;4908149;29;20151;-82
2022/05/17 14:25:02;;;;;;;1.90;1.50;;;;;;;;;;4904718;29;20662;-83
2022/05/17 14:27:32;;;;;;;2.53;1.83;;;;;;;;;;4888759;29;20062;-82
2022/05/17 14:30:03;;;;;;;3.00;1.75;;;;;;;;;;4889692;29;20128;-81
2022/05/17 14:32:32;;;;;;;2.35;1.52;;;;;;;;;;4889751;29;20049;-84
2022/05/17 14:35:01;;;;;;;3.95;1.70;;;;;;;;;;4888861;29;20128;-84
2022/05/17 14:37:29;;;;;;;1.77;1.58;;;;;;;;;;4889643;29;20400;-82
2022/05/17 14:39:57;;;;;;;2.33;1.73;;;;;;;;;;4892209;29;20077;-81
2022/05/17 14:42:25;;;;;;;3.95;1.50;;;;;;;;;;4919621;29;20048;-82
2022/05/17 14:45:15;;;;;;;3.10;1.70;;;;;;;;;;4874345;29;20055;-83
2022/05/17 14:47:54;;;;;;;2.70;1.77;;;;;;;;;;4888746;29;20052;-81
2022/05/17 14:50:23;;;;;;;5.35;1.75;;;;;;;;;;4888752;29;20045;-83
2022/05/17 14:52:54;;;;;;;5.80;1.85;;;;;;;;;;4890455;29;20045;-85
2022/05/17 14:55:30;;;;;;;4.65;1.40;;;;;;;;;;4915574;29;20572;-82
2022/05/17 14:57:57;;;;;;;1.58;1.48;;;;;;;;;;4904535;29;20521;-85
2022/05/17 15:00:26;;;;;;;4.93;1.67;;;;;;;;;;4887235;29;20043;-80
2022/05/17 15:02:56;;;;;;;3.55;1.55;;;;;;;;;;4919477;29;20053;-85
2022/05/17 15:05:31;;;;;;;2.20;1.50;;;;;;;;;;4890314;29;20053;-82
2022/05/17 15:07:59;;;;;;;5.25;1.60;;;;;;;;;;4887134;29;20643;-83
2022/05/17 15:10:28;;;;;;;2.30;1.40;;;;;;;;;;4886028;29;20052;-84
2022/05/17 15:12:56;;;;;;;8.57;1.95;;;;;;;;;;4887863;29;20052;-83
2022/05/17 15:15:26;;;;;;;3.90;1.80;;;;;;;;;;4881580;29;20049;-83
2022/05/17 15:17:58;;;;;;;3.70;1.58;;;;;;;;;;4892797;29;20421;-84
2022/05/17 15:20:27;;;;;;;3.88;1.52;;;;;;;;;;4884275;29;20056;-85
2022/05/17 15:22:56;;;;;;;5.88;1.80;;;;;;;;;;4883680;29;20493;-84
2022/05/17 15:25:24;;;;;;;5.50;1.85;;;;;;;;;;4886574;29;20050;-85
2022/05/17 15:27:53;;;;;;;1.73;1.63;;;;;;;;;;4887121;29;20041;-84
2022/05/17 15:30:23;;;;;;;3.33;2.33;;;;;;;;;;4902100;29;20093;-86
2022/05/17 15:32:54;;;;;;;1.70;1.60;;;;;;;;;;4900183;29;20536;-85
2022/05/17 15:35:24;;;;;;;1.70;1.35;;;;;;;;;;4885090;29;20055;-82
2022/05/17 15:37:52;;;;;;;4.10;1.70;;;;;;;;;;4898777;29;20056;-83
2022/05/17 15:40:19;;;;;;;5.20;1.88;;;;;;;;;;4886157;29;20985;-83
2022/05/17 15:42:48;;;;;;;2.50;2.30;;;;;;;;;;4883277;29;20051;-85
2022/05/17 15:45:20;;;;;;;2.88;1.88;;;;;;;;;;4882895;29;20052;-83
2022/05/17 15:53:31;;;;;;;3.45;1.52;;;;;;;;;;4884547;29;20127;-83
2022/05/17 15:56:01;;;;;;;2.25;1.63;;;;;;;;;;4914884;29;20060;-83
2022/05/17 15:58:30;;;;;;;1.48;1.38;;;;;;;;;;4910857;29;20048;-83
2022/05/17 16:00:57;;;;;;;3.22;1.60;;;;;;;;;;4880716;29;20152;-83
2022/05/17 16:03:32;;;;;;;2.97;1.77;;;;;;;;;;4875775;29;20060;-84
2022/05/17 16:06:00;;;;;;;4.50;1.77;;;;;;;;;;4912244;29;20052;-85